sensor_id;sensor_type;location;lat;lon;timestamp;temperature;humidity
26990;DHT22;14537;47.788;11.858;2022-07-29T00:02:08;17.20;99.90
26990;DHT22;14537;47.788;11.858;2022-07-29T00:04:34;17.20;99.90
26990;DHT22;14537;47.788;11.858;2022-07-29T00:07:00;17.10;99.90
26990;DHT22;14537;47.788;11.858;2022-07-29T00:09:25;17.10;99.90
26990;DHT22;14537;47.788;11.858;2022-07-29T00:11:51;17.10;99.90
26990;DHT22;14537;47.788;11.858;2022-07-29T00:14:17;17.10;99.90
26990;DHT22;14537;47.788;11.858;2022-07-29T00:16:42;17.10;99.90
26990;DHT22;14537;47.788;11.858;2022-07-29T00:19:08;17.10;99.90
26990;DHT22;14537;47.788;11.858;2022-07-29T00:21:33;17.00;99.90
26990;DHT22;14537;47.788;11.858;2022-07-29T00:23:59;17.00;99.90
26990;DHT22;14537;47.788;11.858;2022-07-29T00:26:24;17.10;99.90
26990;DHT22;14537;47.788;11.858;2022-07-29T00:28:50;17.10;99.90
26990;DHT22;14537;47.788;11.858;2022-07-29T00:31:15;17.10;99.90
26990;DHT22;14537;47.788;11.858;2022-07-29T00:33:41;17.10;99.90
26990;DHT22;14537;47.788;11.858;2022-07-29T00:36:06;17.10;99.90
26990;DHT22;14537;47.788;11.858;2022-07-29T00:38:32;17.10;99.90
26990;DHT22;14537;47.788;11.858;2022-07-29T00:40:58;17.10;99.90
26990;DHT22;14537;47.788;11.858;2022-07-29T00:43:23;17.10;99.90
26990;DHT22;14537;47.788;11.858;2022-07-29T00:45:49;17.10;99.90
26990;DHT22;14537;47.788;11.858;2022-07-29T00:48:14;17.00;99.90
26990;DHT22;14537;47.788;11.858;2022-07-29T00:50:40;17.00;99.90
26990;DHT22;14537;47.788;11.858;2022-07-29T00:53:06;16.90;99.90
26990;DHT22;14537;47.788;11.858;2022-07-29T00:55:32;16.90;99.90
26990;DHT22;14537;47.788;11.858;2022-07-29T00:57:58;16.90;99.90
26990;DHT22;14537;47.788;11.858;2022-07-29T01:00:24;16.90;99.90
26990;DHT22;14537;47.788;11.858;2022-07-29T01:02:50;16.80;99.90
26990;DHT22;14537;47.788;11.858;2022-07-29T01:05:16;16.80;99.90
26990;DHT22;14537;47.788;11.858;2022-07-29T01:07:42;16.80;99.90
26990;DHT22;14537;47.788;11.858;2022-07-29T01:10:09;16.80;99.90
26990;DHT22;14537;47.788;11.858;2022-07-29T01:12:35;16.80;99.90
26990;DHT22;14537;47.788;11.858;2022-07-29T01:15:02;16.80;99.90
26990;DHT22;14537;47.788;11.858;2022-07-29T01:17:32;16.70;99.90
26990;DHT22;14537;47.788;11.858;2022-07-29T01:22:35;16.80;99.90
26990;DHT22;14537;47.788;11.858;2022-07-29T01:30:12;16.70;99.90
26990;DHT22;14537;47.788;11.858;2022-07-29T01:32:38;16.70;99.90
26990;DHT22;14537;47.788;11.858;2022-07-29T01:35:05;16.70;99.90
26990;DHT22;14537;47.788;11.858;2022-07-29T01:37:48;16.60;99.90
26990;DHT22;14537;47.788;11.858;2022-07-29T01:42:44;16.50;99.90
26990;DHT22;14537;47.788;11.858;2022-07-29T01:48:38;16.50;99.90
26990;DHT22;14537;47.788;11.858;2022-07-29T01:50:50;16.50;99.90
26990;DHT22;14537;47.788;11.858;2022-07-29T01:53:25;16.50;99.90
26990;DHT22;14537;47.788;11.858;2022-07-29T01:55:52;16.50;99.90
26990;DHT22;14537;47.788;11.858;2022-07-29T01:58:18;16.50;99.90
26990;DHT22;14537;47.788;11.858;2022-07-29T02:00:44;16.50;99.90
26990;DHT22;14537;47.788;11.858;2022-07-29T02:03:11;16.50;99.90
26990;DHT22;14537;47.788;11.858;2022-07-29T02:05:37;16.50;99.90
26990;DHT22;14537;47.788;11.858;2022-07-29T02:08:04;16.50;99.90
26990;DHT22;14537;47.788;11.858;2022-07-29T02:10:31;16.60;99.90
26990;DHT22;14537;47.788;11.858;2022-07-29T02:12:57;16.50;99.90
26990;DHT22;14537;47.788;11.858;2022-07-29T02:15:24;16.40;99.90
26990;DHT22;14537;47.788;11.858;2022-07-29T02:17:54;16.50;99.90
26990;DHT22;14537;47.788;11.858;2022-07-29T02:20:20;16.50;99.90
26990;DHT22;14537;47.788;11.858;2022-07-29T02:22:47;16.40;99.90
26990;DHT22;14537;47.788;11.858;2022-07-29T02:25:14;16.40;99.90
26990;DHT22;14537;47.788;11.858;2022-07-29T02:27:40;16.30;99.90
26990;DHT22;14537;47.788;11.858;2022-07-29T02:30:07;16.40;99.90
26990;DHT22;14537;47.788;11.858;2022-07-29T02:32:36;16.30;99.90
26990;DHT22;14537;47.788;11.858;2022-07-29T02:35:03;16.20;99.90
26990;DHT22;14537;47.788;11.858;2022-07-29T02:37:29;16.20;99.90
26990;DHT22;14537;47.788;11.858;2022-07-29T02:39:56;16.20;99.90
26990;DHT22;14537;47.788;11.858;2022-07-29T02:42:23;16.30;99.90
26990;DHT22;14537;47.788;11.858;2022-07-29T02:44:49;16.30;99.90
26990;DHT22;14537;47.788;11.858;2022-07-29T02:47:30;16.30;99.90
26990;DHT22;14537;47.788;11.858;2022-07-29T02:49:57;16.30;99.90
26990;DHT22;14537;47.788;11.858;2022-07-29T02:52:33;16.30;99.90
26990;DHT22;14537;47.788;11.858;2022-07-29T02:55:04;16.30;99.90
26990;DHT22;14537;47.788;11.858;2022-07-29T02:57:34;16.20;99.90
26990;DHT22;14537;47.788;11.858;2022-07-29T03:00:06;16.20;99.90
26990;DHT22;14537;47.788;11.858;2022-07-29T03:02:39;16.20;99.90
26990;DHT22;14537;47.788;11.858;2022-07-29T03:05:06;16.10;99.90
26990;DHT22;14537;47.788;11.858;2022-07-29T03:07:33;16.10;99.90
26990;DHT22;14537;47.788;11.858;2022-07-29T03:09:59;16.10;99.90
26990;DHT22;14537;47.788;11.858;2022-07-29T03:12:25;16.00;99.90
26990;DHT22;14537;47.788;11.858;2022-07-29T03:14:50;16.10;99.90
26990;DHT22;14537;47.788;11.858;2022-07-29T03:17:16;16.10;99.90
26990;DHT22;14537;47.788;11.858;2022-07-29T03:19:42;16.10;99.90
26990;DHT22;14537;47.788;11.858;2022-07-29T03:22:08;16.10;99.90
26990;DHT22;14537;47.788;11.858;2022-07-29T03:24:34;16.10;99.90
26990;DHT22;14537;47.788;11.858;2022-07-29T03:27:00;16.10;99.90
26990;DHT22;14537;47.788;11.858;2022-07-29T03:29:26;16.10;99.90
26990;DHT22;14537;47.788;11.858;2022-07-29T03:31:52;16.10;99.90
26990;DHT22;14537;47.788;11.858;2022-07-29T03:34:17;16.20;99.90
26990;DHT22;14537;47.788;11.858;2022-07-29T03:36:43;16.20;99.90
26990;DHT22;14537;47.788;11.858;2022-07-29T03:39:09;16.20;99.90
26990;DHT22;14537;47.788;11.858;2022-07-29T03:41:35;16.30;99.90
26990;DHT22;14537;47.788;11.858;2022-07-29T03:44:02;16.30;99.90
26990;DHT22;14537;47.788;11.858;2022-07-29T03:46:28;16.20;99.90
26990;DHT22;14537;47.788;11.858;2022-07-29T03:48:55;16.30;99.90
26990;DHT22;14537;47.788;11.858;2022-07-29T03:51:21;16.20;99.90
26990;DHT22;14537;47.788;11.858;2022-07-29T03:53:47;16.20;99.90
26990;DHT22;14537;47.788;11.858;2022-07-29T03:56:14;16.20;99.90
26990;DHT22;14537;47.788;11.858;2022-07-29T03:58:40;16.20;99.90
26990;DHT22;14537;47.788;11.858;2022-07-29T04:01:06;16.20;99.90
26990;DHT22;14537;47.788;11.858;2022-07-29T04:03:32;16.10;99.90
26990;DHT22;14537;47.788;11.858;2022-07-29T04:05:58;16.00;99.90
26990;DHT22;14537;47.788;11.858;2022-07-29T04:08:24;16.00;99.90
26990;DHT22;14537;47.788;11.858;2022-07-29T04:10:50;16.00;99.90
26990;DHT22;14537;47.788;11.858;2022-07-29T04:13:17;15.90;99.90
26990;DHT22;14537;47.788;11.858;2022-07-29T04:15:42;15.90;99.90
26990;DHT22;14537;47.788;11.858;2022-07-29T04:18:08;15.90;99.90
26990;DHT22;14537;47.788;11.858;2022-07-29T04:20:34;15.90;99.90
26990;DHT22;14537;47.788;11.858;2022-07-29T04:22:59;15.80;99.90
26990;DHT22;14537;47.788;11.858;2022-07-29T04:25:25;15.80;99.90
26990;DHT22;14537;47.788;11.858;2022-07-29T04:27:50;15.90;99.90
26990;DHT22;14537;47.788;11.858;2022-07-29T04:30:29;15.90;99.90
26990;DHT22;14537;47.788;11.858;2022-07-29T04:32:55;15.80;99.90
26990;DHT22;14537;47.788;11.858;2022-07-29T04:35:20;15.80;99.90
26990;DHT22;14537;47.788;11.858;2022-07-29T04:37:46;15.80;99.90
26990;DHT22;14537;47.788;11.858;2022-07-29T04:40:11;15.80;99.90
26990;DHT22;14537;47.788;11.858;2022-07-29T04:42:37;15.70;99.90
26990;DHT22;14537;47.788;11.858;2022-07-29T04:45:03;15.70;99.90
26990;DHT22;14537;47.788;11.858;2022-07-29T04:47:29;15.60;99.90
26990;DHT22;14537;47.788;11.858;2022-07-29T04:49:54;15.60;99.90
26990;DHT22;14537;47.788;11.858;2022-07-29T04:52:21;15.70;99.90
26990;DHT22;14537;47.788;11.858;2022-07-29T04:54:47;15.70;99.90
26990;DHT22;14537;47.788;11.858;2022-07-29T04:57:12;15.80;99.90
26990;DHT22;14537;47.788;11.858;2022-07-29T04:59:38;15.90;99.90
26990;DHT22;14537;47.788;11.858;2022-07-29T05:02:04;15.90;99.90
26990;DHT22;14537;47.788;11.858;2022-07-29T05:04:29;16.00;99.90
26990;DHT22;14537;47.788;11.858;2022-07-29T05:06:55;16.00;99.90
26990;DHT22;14537;47.788;11.858;2022-07-29T05:09:20;16.10;99.90
26990;DHT22;14537;47.788;11.858;2022-07-29T05:11:46;16.20;99.90
26990;DHT22;14537;47.788;11.858;2022-07-29T05:14:11;16.20;99.90
26990;DHT22;14537;47.788;11.858;2022-07-29T05:16:37;16.30;99.90
26990;DHT22;14537;47.788;11.858;2022-07-29T05:19:04;16.40;99.90
26990;DHT22;14537;47.788;11.858;2022-07-29T05:21:29;16.50;99.90
26990;DHT22;14537;47.788;11.858;2022-07-29T05:23:55;16.60;99.90
26990;DHT22;14537;47.788;11.858;2022-07-29T05:26:20;16.70;99.90
26990;DHT22;14537;47.788;11.858;2022-07-29T05:28:46;16.80;99.90
26990;DHT22;14537;47.788;11.858;2022-07-29T05:31:12;16.90;99.90
26990;DHT22;14537;47.788;11.858;2022-07-29T05:33:40;17.00;99.90
26990;DHT22;14537;47.788;11.858;2022-07-29T05:36:06;17.10;99.90
26990;DHT22;14537;47.788;11.858;2022-07-29T05:38:32;17.20;99.90
26990;DHT22;14537;47.788;11.858;2022-07-29T05:40:58;17.40;99.90
26990;DHT22;14537;47.788;11.858;2022-07-29T05:43:24;17.50;99.90
26990;DHT22;14537;47.788;11.858;2022-07-29T05:45:49;17.60;99.90
26990;DHT22;14537;47.788;11.858;2022-07-29T05:48:15;17.70;99.90
26990;DHT22;14537;47.788;11.858;2022-07-29T05:50:41;17.70;99.90
26990;DHT22;14537;47.788;11.858;2022-07-29T05:53:06;17.70;99.90
26990;DHT22;14537;47.788;11.858;2022-07-29T05:55:32;17.70;99.90
26990;DHT22;14537;47.788;11.858;2022-07-29T05:57:57;17.70;99.90
26990;DHT22;14537;47.788;11.858;2022-07-29T06:00:23;17.70;99.90
26990;DHT22;14537;47.788;11.858;2022-07-29T06:02:48;17.70;99.90
26990;DHT22;14537;47.788;11.858;2022-07-29T06:05:14;17.70;99.90
26990;DHT22;14537;47.788;11.858;2022-07-29T06:07:40;17.70;99.90
26990;DHT22;14537;47.788;11.858;2022-07-29T06:10:06;17.70;99.90
26990;DHT22;14537;47.788;11.858;2022-07-29T06:12:32;17.70;99.90
26990;DHT22;14537;47.788;11.858;2022-07-29T06:14:57;17.70;99.90
26990;DHT22;14537;47.788;11.858;2022-07-29T06:17:23;17.60;99.90
26990;DHT22;14537;47.788;11.858;2022-07-29T06:19:48;17.60;99.90
26990;DHT22;14537;47.788;11.858;2022-07-29T06:22:17;17.60;99.90
26990;DHT22;14537;47.788;11.858;2022-07-29T06:24:43;17.60;99.90
26990;DHT22;14537;47.788;11.858;2022-07-29T06:27:12;17.60;99.90
26990;DHT22;14537;47.788;11.858;2022-07-29T06:29:37;17.70;99.90
26990;DHT22;14537;47.788;11.858;2022-07-29T06:32:03;17.70;99.90
26990;DHT22;14537;47.788;11.858;2022-07-29T06:34:29;17.70;99.90
26990;DHT22;14537;47.788;11.858;2022-07-29T06:36:54;17.80;99.90
26990;DHT22;14537;47.788;11.858;2022-07-29T06:39:20;17.90;99.90
26990;DHT22;14537;47.788;11.858;2022-07-29T06:41:46;17.90;99.90
26990;DHT22;14537;47.788;11.858;2022-07-29T06:44:13;18.00;99.90
26990;DHT22;14537;47.788;11.858;2022-07-29T06:46:39;18.10;99.90
26990;DHT22;14537;47.788;11.858;2022-07-29T06:49:04;18.10;99.90
26990;DHT22;14537;47.788;11.858;2022-07-29T06:51:30;18.20;99.90
26990;DHT22;14537;47.788;11.858;2022-07-29T06:53:55;18.20;99.90
26990;DHT22;14537;47.788;11.858;2022-07-29T06:56:22;18.30;99.90
26990;DHT22;14537;47.788;11.858;2022-07-29T06:58:48;18.40;99.90
26990;DHT22;14537;47.788;11.858;2022-07-29T07:01:13;18.50;99.90
26990;DHT22;14537;47.788;11.858;2022-07-29T07:03:39;18.60;99.90
26990;DHT22;14537;47.788;11.858;2022-07-29T07:06:04;18.70;99.90
26990;DHT22;14537;47.788;11.858;2022-07-29T07:08:30;18.70;99.90
26990;DHT22;14537;47.788;11.858;2022-07-29T07:10:56;18.70;99.90
26990;DHT22;14537;47.788;11.858;2022-07-29T07:13:22;18.80;99.90
26990;DHT22;14537;47.788;11.858;2022-07-29T07:15:47;18.90;99.90
26990;DHT22;14537;47.788;11.858;2022-07-29T07:18:14;19.10;99.90
26990;DHT22;14537;47.788;11.858;2022-07-29T07:20:40;19.10;99.90
26990;DHT22;14537;47.788;11.858;2022-07-29T07:23:05;19.10;99.90
26990;DHT22;14537;47.788;11.858;2022-07-29T07:25:31;19.20;99.90
26990;DHT22;14537;47.788;11.858;2022-07-29T07:27:57;19.30;99.90
26990;DHT22;14537;47.788;11.858;2022-07-29T07:30:23;19.40;99.90
26990;DHT22;14537;47.788;11.858;2022-07-29T07:32:48;19.50;99.90
26990;DHT22;14537;47.788;11.858;2022-07-29T07:35:14;19.60;99.90
26990;DHT22;14537;47.788;11.858;2022-07-29T07:37:40;19.60;99.90
26990;DHT22;14537;47.788;11.858;2022-07-29T07:40:09;19.90;99.90
26990;DHT22;14537;47.788;11.858;2022-07-29T07:42:37;20.00;99.90
26990;DHT22;14537;47.788;11.858;2022-07-29T07:45:02;20.00;99.90
26990;DHT22;14537;47.788;11.858;2022-07-29T07:47:28;20.20;99.90
26990;DHT22;14537;47.788;11.858;2022-07-29T07:49:54;20.20;99.90
26990;DHT22;14537;47.788;11.858;2022-07-29T07:52:20;20.30;99.90
26990;DHT22;14537;47.788;11.858;2022-07-29T07:54:46;20.30;99.90
26990;DHT22;14537;47.788;11.858;2022-07-29T07:57:12;20.30;99.90
26990;DHT22;14537;47.788;11.858;2022-07-29T07:59:38;20.30;99.90
26990;DHT22;14537;47.788;11.858;2022-07-29T08:02:04;20.30;99.90
26990;DHT22;14537;47.788;11.858;2022-07-29T08:04:29;20.30;99.90
26990;DHT22;14537;47.788;11.858;2022-07-29T08:06:56;20.30;99.90
26990;DHT22;14537;47.788;11.858;2022-07-29T08:09:22;20.40;99.90
26990;DHT22;14537;47.788;11.858;2022-07-29T08:11:48;20.40;99.90
26990;DHT22;14537;47.788;11.858;2022-07-29T08:14:13;20.50;99.90
26990;DHT22;14537;47.788;11.858;2022-07-29T08:16:39;20.60;99.90
26990;DHT22;14537;47.788;11.858;2022-07-29T08:19:05;20.80;99.90
26990;DHT22;14537;47.788;11.858;2022-07-29T08:21:31;20.90;99.90
26990;DHT22;14537;47.788;11.858;2022-07-29T08:23:57;20.90;99.90
26990;DHT22;14537;47.788;11.858;2022-07-29T08:26:41;21.00;99.90
26990;DHT22;14537;47.788;11.858;2022-07-29T08:29:07;21.10;99.90
26990;DHT22;14537;47.788;11.858;2022-07-29T08:31:32;21.20;99.90
26990;DHT22;14537;47.788;11.858;2022-07-29T08:33:58;21.20;99.90
26990;DHT22;14537;47.788;11.858;2022-07-29T08:36:25;21.20;99.90
26990;DHT22;14537;47.788;11.858;2022-07-29T08:38:51;21.20;99.90
26990;DHT22;14537;47.788;11.858;2022-07-29T08:41:18;21.30;99.90
26990;DHT22;14537;47.788;11.858;2022-07-29T08:43:44;21.30;99.90
26990;DHT22;14537;47.788;11.858;2022-07-29T08:46:09;21.30;99.90
26990;DHT22;14537;47.788;11.858;2022-07-29T08:48:35;21.40;99.90
26990;DHT22;14537;47.788;11.858;2022-07-29T08:51:01;21.50;99.90
26990;DHT22;14537;47.788;11.858;2022-07-29T08:53:27;21.60;99.90
26990;DHT22;14537;47.788;11.858;2022-07-29T08:55:53;21.70;99.90
26990;DHT22;14537;47.788;11.858;2022-07-29T08:58:19;21.70;99.90
26990;DHT22;14537;47.788;11.858;2022-07-29T09:00:46;21.90;99.90
26990;DHT22;14537;47.788;11.858;2022-07-29T09:03:15;22.00;99.90
26990;DHT22;14537;47.788;11.858;2022-07-29T09:05:42;22.00;99.90
26990;DHT22;14537;47.788;11.858;2022-07-29T09:08:08;22.10;99.90
26990;DHT22;14537;47.788;11.858;2022-07-29T09:10:36;22.20;99.90
26990;DHT22;14537;47.788;11.858;2022-07-29T09:13:02;22.20;99.90
26990;DHT22;14537;47.788;11.858;2022-07-29T09:15:28;22.20;99.90
26990;DHT22;14537;47.788;11.858;2022-07-29T09:17:53;22.20;99.90
26990;DHT22;14537;47.788;11.858;2022-07-29T09:20:21;22.40;99.90
26990;DHT22;14537;47.788;11.858;2022-07-29T09:22:49;22.40;99.90
26990;DHT22;14537;47.788;11.858;2022-07-29T09:25:33;22.50;99.90
26990;DHT22;14537;47.788;11.858;2022-07-29T09:30:31;22.60;99.90
26990;DHT22;14537;47.788;11.858;2022-07-29T09:32:58;22.70;99.90
26990;DHT22;14537;47.788;11.858;2022-07-29T09:35:26;22.70;99.90
26990;DHT22;14537;47.788;11.858;2022-07-29T09:37:53;22.70;99.90
26990;DHT22;14537;47.788;11.858;2022-07-29T09:40:22;22.90;99.90
26990;DHT22;14537;47.788;11.858;2022-07-29T09:42:48;23.10;99.90
26990;DHT22;14537;47.788;11.858;2022-07-29T09:45:30;23.10;99.90
26990;DHT22;14537;47.788;11.858;2022-07-29T09:47:56;23.20;99.90
26990;DHT22;14537;47.788;11.858;2022-07-29T09:50:35;23.20;99.90
26990;DHT22;14537;47.788;11.858;2022-07-29T09:53:01;23.30;99.90
26990;DHT22;14537;47.788;11.858;2022-07-29T09:55:26;23.30;99.90
26990;DHT22;14537;47.788;11.858;2022-07-29T09:57:52;23.40;99.90
26990;DHT22;14537;47.788;11.858;2022-07-29T10:00:19;23.60;99.90
26990;DHT22;14537;47.788;11.858;2022-07-29T10:02:45;23.60;99.90
26990;DHT22;14537;47.788;11.858;2022-07-29T10:05:21;23.50;99.90
26990;DHT22;14537;47.788;11.858;2022-07-29T10:07:56;23.50;99.90
26990;DHT22;14537;47.788;11.858;2022-07-29T10:15:21;23.70;99.90
26990;DHT22;14537;47.788;11.858;2022-07-29T10:17:46;23.60;99.90
26990;DHT22;14537;47.788;11.858;2022-07-29T10:20:13;23.60;99.90
26990;DHT22;14537;47.788;11.858;2022-07-29T10:22:39;23.70;99.90
26990;DHT22;14537;47.788;11.858;2022-07-29T10:25:05;23.80;99.90
26990;DHT22;14537;47.788;11.858;2022-07-29T10:27:30;23.80;99.90
26990;DHT22;14537;47.788;11.858;2022-07-29T10:29:56;23.90;99.90
26990;DHT22;14537;47.788;11.858;2022-07-29T10:32:26;24.00;99.90
26990;DHT22;14537;47.788;11.858;2022-07-29T10:40:39;24.10;98.50
26990;DHT22;14537;47.788;11.858;2022-07-29T10:43:26;24.10;99.90
26990;DHT22;14537;47.788;11.858;2022-07-29T10:45:57;24.00;99.40
26990;DHT22;14537;47.788;11.858;2022-07-29T10:48:24;24.10;99.90
26990;DHT22;14537;47.788;11.858;2022-07-29T10:53:20;24.10;99.00
26990;DHT22;14537;47.788;11.858;2022-07-29T10:55:46;24.20;99.20
26990;DHT22;14537;47.788;11.858;2022-07-29T11:00:39;24.40;99.00
26990;DHT22;14537;47.788;11.858;2022-07-29T11:03:04;24.50;99.00
26990;DHT22;14537;47.788;11.858;2022-07-29T11:05:30;24.40;98.70
26990;DHT22;14537;47.788;11.858;2022-07-29T11:08:16;24.30;98.30
26990;DHT22;14537;47.788;11.858;2022-07-29T11:10:44;24.40;99.70
26990;DHT22;14537;47.788;11.858;2022-07-29T11:13:09;24.60;99.00
26990;DHT22;14537;47.788;11.858;2022-07-29T11:18:19;24.70;97.30
26990;DHT22;14537;47.788;11.858;2022-07-29T11:20:46;24.70;97.20
26990;DHT22;14537;47.788;11.858;2022-07-29T11:23:31;24.70;97.90
26990;DHT22;14537;47.788;11.858;2022-07-29T11:28:51;24.50;97.90
26990;DHT22;14537;47.788;11.858;2022-07-29T11:34:21;24.40;98.60
26990;DHT22;14537;47.788;11.858;2022-07-29T11:39:32;24.10;99.90
26990;DHT22;14537;47.788;11.858;2022-07-29T11:47:22;24.50;99.00
26990;DHT22;14537;47.788;11.858;2022-07-29T11:49:48;24.70;99.50
26990;DHT22;14537;47.788;11.858;2022-07-29T11:52:16;24.70;98.10
26990;DHT22;14537;47.788;11.858;2022-07-29T11:54:42;24.60;98.70
26990;DHT22;14537;47.788;11.858;2022-07-29T11:57:08;24.70;99.90
26990;DHT22;14537;47.788;11.858;2022-07-29T11:59:40;24.50;99.20
26990;DHT22;14537;47.788;11.858;2022-07-29T12:02:06;24.40;98.90
26990;DHT22;14537;47.788;11.858;2022-07-29T12:04:32;24.60;98.50
26990;DHT22;14537;47.788;11.858;2022-07-29T12:06:58;24.60;97.80
26990;DHT22;14537;47.788;11.858;2022-07-29T12:09:23;24.70;98.60
26990;DHT22;14537;47.788;11.858;2022-07-29T12:11:49;24.90;98.20
26990;DHT22;14537;47.788;11.858;2022-07-29T12:14:31;24.80;97.60
26990;DHT22;14537;47.788;11.858;2022-07-29T12:16:57;25.10;98.90
26990;DHT22;14537;47.788;11.858;2022-07-29T12:19:24;25.20;96.30
26990;DHT22;14537;47.788;11.858;2022-07-29T12:21:50;25.10;97.00
26990;DHT22;14537;47.788;11.858;2022-07-29T12:24:16;25.20;95.70
26990;DHT22;14537;47.788;11.858;2022-07-29T12:26:52;25.50;96.40
26990;DHT22;14537;47.788;11.858;2022-07-29T12:29:17;26.00;96.10
26990;DHT22;14537;47.788;11.858;2022-07-29T12:31:43;25.90;95.60
26990;DHT22;14537;47.788;11.858;2022-07-29T12:34:10;25.90;94.60
26990;DHT22;14537;47.788;11.858;2022-07-29T12:36:36;26.20;95.20
26990;DHT22;14537;47.788;11.858;2022-07-29T12:39:02;26.10;93.70
26990;DHT22;14537;47.788;11.858;2022-07-29T12:41:28;26.20;95.10
26990;DHT22;14537;47.788;11.858;2022-07-29T12:43:54;26.20;94.60
26990;DHT22;14537;47.788;11.858;2022-07-29T12:46:19;26.30;95.80
26990;DHT22;14537;47.788;11.858;2022-07-29T12:48:49;26.10;93.30
26990;DHT22;14537;47.788;11.858;2022-07-29T12:51:15;26.20;93.10
26990;DHT22;14537;47.788;11.858;2022-07-29T12:53:51;26.30;92.10
26990;DHT22;14537;47.788;11.858;2022-07-29T12:56:26;26.20;94.90
26990;DHT22;14537;47.788;11.858;2022-07-29T12:58:52;26.60;95.40
26990;DHT22;14537;47.788;11.858;2022-07-29T13:01:17;26.80;92.10
26990;DHT22;14537;47.788;11.858;2022-07-29T13:03:55;26.70;92.50
26990;DHT22;14537;47.788;11.858;2022-07-29T13:06:42;26.60;94.00
26990;DHT22;14537;47.788;11.858;2022-07-29T13:11:38;26.40;93.10
26990;DHT22;14537;47.788;11.858;2022-07-29T13:14:05;26.50;92.40
26990;DHT22;14537;47.788;11.858;2022-07-29T13:16:31;26.40;91.60
26990;DHT22;14537;47.788;11.858;2022-07-29T13:19:03;26.20;90.10
26990;DHT22;14537;47.788;11.858;2022-07-29T13:21:29;26.10;91.20
26990;DHT22;14537;47.788;11.858;2022-07-29T13:23:55;26.10;91.30
26990;DHT22;14537;47.788;11.858;2022-07-29T13:26:20;26.00;90.80
26990;DHT22;14537;47.788;11.858;2022-07-29T13:28:46;26.00;92.30
26990;DHT22;14537;47.788;11.858;2022-07-29T13:31:11;25.90;91.10
26990;DHT22;14537;47.788;11.858;2022-07-29T13:33:37;25.80;92.30
26990;DHT22;14537;47.788;11.858;2022-07-29T13:36:02;25.80;92.30
26990;DHT22;14537;47.788;11.858;2022-07-29T13:38:28;25.70;93.20
26990;DHT22;14537;47.788;11.858;2022-07-29T13:40:53;25.70;92.90
26990;DHT22;14537;47.788;11.858;2022-07-29T13:43:19;25.90;93.00
26990;DHT22;14537;47.788;11.858;2022-07-29T13:45:44;26.00;91.10
26990;DHT22;14537;47.788;11.858;2022-07-29T13:48:10;25.80;91.30
26990;DHT22;14537;47.788;11.858;2022-07-29T13:50:36;25.50;92.30
26990;DHT22;14537;47.788;11.858;2022-07-29T13:53:01;25.40;91.80
26990;DHT22;14537;47.788;11.858;2022-07-29T13:55:27;25.40;92.00
26990;DHT22;14537;47.788;11.858;2022-07-29T13:57:53;25.50;93.10
26990;DHT22;14537;47.788;11.858;2022-07-29T14:00:18;25.70;93.70
26990;DHT22;14537;47.788;11.858;2022-07-29T14:02:44;26.20;91.60
26990;DHT22;14537;47.788;11.858;2022-07-29T14:05:10;26.30;93.30
26990;DHT22;14537;47.788;11.858;2022-07-29T14:07:38;26.60;92.10
26990;DHT22;14537;47.788;11.858;2022-07-29T14:10:04;26.50;92.00
26990;DHT22;14537;47.788;11.858;2022-07-29T14:12:30;26.20;91.30
26990;DHT22;14537;47.788;11.858;2022-07-29T14:14:55;26.60;92.80
26990;DHT22;14537;47.788;11.858;2022-07-29T14:17:21;27.00;91.10
26990;DHT22;14537;47.788;11.858;2022-07-29T14:19:47;27.20;91.30
26990;DHT22;14537;47.788;11.858;2022-07-29T14:22:12;27.30;90.30
26990;DHT22;14537;47.788;11.858;2022-07-29T14:24:38;27.30;90.30
26990;DHT22;14537;47.788;11.858;2022-07-29T14:27:04;27.50;90.10
26990;DHT22;14537;47.788;11.858;2022-07-29T14:29:29;27.20;90.40
26990;DHT22;14537;47.788;11.858;2022-07-29T14:31:55;27.80;90.10
26990;DHT22;14537;47.788;11.858;2022-07-29T14:34:20;27.90;90.20
26990;DHT22;14537;47.788;11.858;2022-07-29T14:36:46;27.50;89.80
26990;DHT22;14537;47.788;11.858;2022-07-29T14:39:11;27.50;87.20
26990;DHT22;14537;47.788;11.858;2022-07-29T14:41:37;27.70;89.00
26990;DHT22;14537;47.788;11.858;2022-07-29T14:44:03;27.80;87.80
26990;DHT22;14537;47.788;11.858;2022-07-29T14:46:29;27.40;88.30
26990;DHT22;14537;47.788;11.858;2022-07-29T14:48:54;27.10;87.70
26990;DHT22;14537;47.788;11.858;2022-07-29T14:51:20;27.00;90.30
26990;DHT22;14537;47.788;11.858;2022-07-29T14:53:45;26.70;90.20
26990;DHT22;14537;47.788;11.858;2022-07-29T14:56:11;26.40;90.20
26990;DHT22;14537;47.788;11.858;2022-07-29T14:58:36;26.00;90.10
26990;DHT22;14537;47.788;11.858;2022-07-29T15:01:02;25.80;90.40
26990;DHT22;14537;47.788;11.858;2022-07-29T15:03:28;25.70;91.00
26990;DHT22;14537;47.788;11.858;2022-07-29T15:05:54;25.60;91.20
26990;DHT22;14537;47.788;11.858;2022-07-29T15:08:19;25.30;91.80
26990;DHT22;14537;47.788;11.858;2022-07-29T15:10:45;25.20;92.60
26990;DHT22;14537;47.788;11.858;2022-07-29T15:13:11;25.10;92.70
26990;DHT22;14537;47.788;11.858;2022-07-29T15:15:36;25.20;92.70
26990;DHT22;14537;47.788;11.858;2022-07-29T15:18:02;25.00;93.20
26990;DHT22;14537;47.788;11.858;2022-07-29T15:20:27;24.90;94.00
26990;DHT22;14537;47.788;11.858;2022-07-29T15:22:54;24.80;93.50
26990;DHT22;14537;47.788;11.858;2022-07-29T15:25:23;24.80;93.90
26990;DHT22;14537;47.788;11.858;2022-07-29T15:27:49;24.80;93.60
26990;DHT22;14537;47.788;11.858;2022-07-29T15:30:15;24.70;93.80
26990;DHT22;14537;47.788;11.858;2022-07-29T15:32:45;24.60;94.30
26990;DHT22;14537;47.788;11.858;2022-07-29T15:35:10;24.40;94.90
26990;DHT22;14537;47.788;11.858;2022-07-29T15:37:37;24.30;95.10
26990;DHT22;14537;47.788;11.858;2022-07-29T15:40:03;24.10;95.40
26990;DHT22;14537;47.788;11.858;2022-07-29T15:42:28;24.00;96.10
26990;DHT22;14537;47.788;11.858;2022-07-29T15:44:54;23.90;95.60
26990;DHT22;14537;47.788;11.858;2022-07-29T15:47:21;23.80;97.00
26990;DHT22;14537;47.788;11.858;2022-07-29T15:49:46;23.80;97.70
26990;DHT22;14537;47.788;11.858;2022-07-29T15:52:12;23.40;99.20
26990;DHT22;14537;47.788;11.858;2022-07-29T15:54:38;23.30;99.90
26990;DHT22;14537;47.788;11.858;2022-07-29T15:57:05;23.30;99.90
26990;DHT22;14537;47.788;11.858;2022-07-29T15:59:31;23.20;99.90
26990;DHT22;14537;47.788;11.858;2022-07-29T16:01:56;23.20;99.90
26990;DHT22;14537;47.788;11.858;2022-07-29T16:04:22;23.00;99.90